Time;durP1;ratioP1;P1;durP2;ratioP2;P2;SDS_P1;SDS_P2;PMS_P1;PMS_P2;Temp;Humidity;BMP_temperature;BMP_pressure;BME280_temperature;BME280_humidity;BME280_pressure;Samples;Min_cycle;Max_cycle;Signal;HPM_P1;HPM_P2
2023/07/21 00:01:05;;;;;;;3.27;2.93;;;17.40;1.00;;;;;;5034471;28;20422;-68
2023/07/21 00:03:32;;;;;;;3.73;3.27;;;17.40;1.00;;;;;;5033762;28;20452;-68
2023/07/21 00:05:59;;;;;;;3.30;3.00;;;17.30;1.00;;;;;;5034155;28;20557;-68
2023/07/21 00:08:26;;;;;;;3.50;2.83;;;17.40;1.00;;;;;;5034215;28;20833;-68
2023/07/21 00:10:51;;;;;;;2.93;2.63;;;17.40;1.00;;;;;;5033752;28;20410;-69
2023/07/21 00:13:17;;;;;;;3.50;3.20;;;17.30;1.00;;;;;;5033711;28;20417;-68
2023/07/21 00:15:45;;;;;;;3.50;3.07;;;17.40;1.00;;;;;;5034073;28;20178;-69
2023/07/21 00:18:10;;;;;;;3.23;2.93;;;17.40;1.00;;;;;;5034311;28;20274;-69
2023/07/21 00:20:36;;;;;;;2.87;2.57;;;17.40;1.00;;;;;;5033991;28;20472;-69
2023/07/21 00:23:01;;;;;;;5.10;3.60;;;17.50;1.00;;;;;;5033805;28;20561;-69
2023/07/21 00:25:27;;;;;;;3.80;2.70;;;17.50;1.00;;;;;;5034199;28;20234;-69
2023/07/21 00:27:52;;;;;;;3.50;2.67;;;17.50;1.00;;;;;;5033552;28;20198;-69
2023/07/21 00:30:21;;;;;;;3.10;2.67;;;17.50;1.00;;;;;;5033427;28;20178;-69
2023/07/21 00:32:46;;;;;;;8.90;3.17;;;17.50;1.00;;;;;;5032944;28;20177;-70
2023/07/21 00:35:12;;;;;;;3.17;2.97;;;17.50;1.00;;;;;;5033188;28;20978;-69
2023/07/21 00:37:39;;;;;;;3.37;2.77;;;17.50;1.00;;;;;;5033629;28;20283;-70
2023/07/21 00:40:09;;;;;;;2.80;2.60;;;17.60;1.00;;;;;;5032851;28;20837;-70
2023/07/21 00:42:35;;;;;;;3.37;3.17;;;17.60;1.00;;;;;;5033506;28;20414;-69
2023/07/21 00:45:01;;;;;;;3.57;3.03;;;17.50;1.00;;;;;;5034493;28;20458;-69
2023/07/21 00:47:29;;;;;;;3.90;3.27;;;17.50;1.00;;;;;;5033844;28;20441;-69
2023/07/21 00:49:56;;;;;;;4.20;3.20;;;17.50;1.00;;;;;;5033727;28;20509;-69
2023/07/21 00:52:23;;;;;;;2.97;2.77;;;17.50;1.00;;;;;;5034219;28;20782;-69
2023/07/21 00:54:49;;;;;;;2.90;2.70;;;17.50;1.00;;;;;;5034269;28;20910;-69
2023/07/21 00:57:16;;;;;;;3.37;2.87;;;17.50;1.00;;;;;;5032502;28;20464;-68
2023/07/21 00:59:41;;;;;;;2.50;2.30;;;17.50;1.00;;;;;;5064460;28;20912;-69
2023/07/21 01:02:07;;;;;;;2.67;2.47;;;17.50;1.00;;;;;;5032343;28;20410;-69
2023/07/21 01:04:34;;;;;;;3.00;2.77;;;17.50;1.00;;;;;;5032386;28;20492;-69
2023/07/21 01:07:02;;;;;;;3.23;3.03;;;17.60;1.00;;;;;;5032461;28;20206;-69
2023/07/21 01:09:30;;;;;;;2.80;2.60;;;17.60;1.00;;;;;;5032443;28;20496;-69
2023/07/21 01:11:55;;;;;;;3.17;2.87;;;17.70;1.00;;;;;;5032132;28;20973;-69
2023/07/21 01:14:21;;;;;;;3.20;2.90;;;17.60;1.00;;;;;;5032370;28;20422;-69
2023/07/21 01:16:48;;;;;;;3.00;2.43;;;17.60;1.00;;;;;;5032618;28;20683;-69
2023/07/21 01:19:15;;;;;;;3.20;2.90;;;17.50;1.00;;;;;;5032163;28;20190;-69
2023/07/21 01:21:49;;;;;;;2.63;2.43;;;17.50;1.00;;;;;;5029784;28;20589;-69
2023/07/21 01:24:20;;;;;;;3.07;2.70;;;17.50;1.00;;;;;;5032123;28;20453;-69
2023/07/21 01:26:48;;;;;;;3.60;2.60;;;17.40;1.00;;;;;;5030786;28;20426;-69
2023/07/21 01:29:18;;;;;;;3.43;3.13;;;17.40;1.00;;;;;;5032014;28;20899;-69
2023/07/21 01:31:47;;;;;;;3.13;2.83;;;17.30;1.00;;;;;;5032133;28;20410;-68
2023/07/21 01:34:14;;;;;;;3.27;2.97;;;17.10;1.00;;;;;;5032802;28;20418;-68
2023/07/21 01:36:41;;;;;;;2.43;2.23;;;17.00;1.00;;;;;;5031186;28;20449;-68
2023/07/21 01:39:08;;;;;;;2.70;2.50;;;17.00;1.00;;;;;;5032014;28;20414;-69
2023/07/21 01:41:34;;;;;;;2.97;2.53;;;17.00;1.00;;;;;;5031521;28;20422;-70
2023/07/21 01:44:00;;;;;;;3.10;2.60;;;17.00;1.00;;;;;;5032609;28;20457;-69
2023/07/21 01:46:26;;;;;;;4.50;3.07;;;16.90;1.00;;;;;;5032777;28;20417;-69
2023/07/21 01:48:52;;;;;;;3.00;2.80;;;16.90;1.00;;;;;;5032801;28;20496;-69
2023/07/21 01:51:19;;;;;;;2.63;2.20;;;16.90;1.00;;;;;;5032679;28;20171;-69
2023/07/21 01:53:50;;;;;;;2.60;2.37;;;16.90;1.00;;;;;;5032298;28;20175;-69
2023/07/21 01:59:05;;;;;;;2.73;2.47;;;16.80;1.00;;;;;;5032941;23;20840;-69
2023/07/21 02:01:33;;;;;;;3.30;2.63;;;16.80;1.00;;;;;;5012217;28;20415;-69
2023/07/21 02:03:58;;;;;;;2.97;2.60;;;16.70;1.00;;;;;;5010897;28;20458;-69
2023/07/21 02:06:24;;;;;;;2.50;2.30;;;16.60;1.00;;;;;;5010910;28;20429;-69
2023/07/21 02:08:50;;;;;;;2.63;2.03;;;16.50;1.00;;;;;;5012107;28;20553;-68
2023/07/21 02:11:16;;;;;;;3.23;2.90;;;16.50;1.00;;;;;;5010803;28;20414;-68
2023/07/21 02:13:41;;;;;;;5.07;3.33;;;16.50;1.00;;;;;;5012153;28;20597;-69
2023/07/21 02:16:07;;;;;;;3.30;2.23;;;16.40;1.00;;;;;;5012124;28;20722;-68
2023/07/21 02:18:34;;;;;;;2.63;2.27;;;16.30;1.00;;;;;;5010818;28;20735;-68
2023/07/21 02:21:04;;;;;;;2.80;2.60;;;16.30;1.00;;;;;;5012095;28;20202;-68
2023/07/21 02:23:31;;;;;;;3.60;2.43;;;16.20;1.00;;;;;;5011799;28;21000;-69
2023/07/21 02:25:57;;;;;;;2.27;1.93;;;16.20;1.00;;;;;;5012221;28;20433;-68
2023/07/21 02:28:22;;;;;;;3.43;2.57;;;16.20;1.00;;;;;;5012040;28;20433;-68
2023/07/21 02:30:57;;;;;;;3.07;2.33;;;16.20;1.00;;;;;;5012045;28;20418;-68
2023/07/21 02:33:23;;;;;;;4.60;2.90;;;16.30;1.00;;;;;;5013895;28;20175;-68
2023/07/21 02:35:48;;;;;;;3.80;2.53;;;16.30;1.00;;;;;;5015916;28;20488;-69
2023/07/21 02:38:14;;;;;;;2.10;1.90;;;16.30;1.00;;;;;;5015811;28;20207;-69
2023/07/21 02:40:39;;;;;;;2.50;2.30;;;16.30;1.00;;;;;;5015846;28;20601;-68
2023/07/21 02:43:05;;;;;;;4.03;2.80;;;16.40;1.00;;;;;;5015539;28;20598;-68
2023/07/21 02:45:30;;;;;;;2.80;2.50;;;16.30;1.00;;;;;;5015692;28;20718;-68
2023/07/21 02:47:56;;;;;;;4.03;2.37;;;16.30;1.00;;;;;;5015563;28;20199;-69
2023/07/21 02:50:23;;;;;;;3.97;2.00;;;16.30;1.00;;;;;;5015532;28;20179;-69
2023/07/21 02:52:48;;;;;;;4.30;2.57;;;16.30;1.00;;;;;;5015510;28;20518;-68
2023/07/21 02:55:14;;;;;;;3.53;2.30;;;16.30;1.00;;;;;;5015522;28;20471;-69
2023/07/21 02:57:39;;;;;;;3.50;2.57;;;16.30;1.00;;;;;;5015245;28;20270;-70
2023/07/21 03:00:06;;;;;;;3.20;2.47;;;16.30;1.00;;;;;;5014147;28;20178;-69
2023/07/21 03:02:34;;;;;;;3.30;2.00;;;16.30;1.00;;;;;;5015100;28;20586;-69
2023/07/21 03:05:03;;;;;;;2.87;2.03;;;16.30;1.00;;;;;;5015285;28;20532;-69
2023/07/21 03:07:29;;;;;;;4.23;2.40;;;16.20;1.00;;;;;;5015244;28;20465;-69
2023/07/21 03:09:55;;;;;;;2.30;1.80;;;16.20;1.00;;;;;;5015344;28;20442;-69
2023/07/21 03:12:20;;;;;;;2.53;2.23;;;16.20;1.00;;;;;;5015160;28;20922;-68
2023/07/21 03:14:48;;;;;;;2.07;1.80;;;16.10;1.00;;;;;;5015186;28;20269;-70
2023/07/21 03:17:14;;;;;;;4.70;2.07;;;16.00;1.00;;;;;;5014935;28;20281;-69
2023/07/21 03:19:40;;;;;;;2.97;2.13;;;15.90;1.00;;;;;;5015107;28;20521;-69
2023/07/21 03:22:06;;;;;;;3.37;2.70;;;15.90;1.00;;;;;;5014746;28;20244;-69
2023/07/21 03:24:34;;;;;;;4.60;2.60;;;15.70;1.00;;;;;;5014839;28;20206;-69
2023/07/21 03:27:00;;;;;;;2.30;2.10;;;15.60;1.00;;;;;;5014872;28;20599;-69
2023/07/21 03:29:25;;;;;;;5.00;2.70;;;15.60;1.00;;;;;;5015301;28;20556;-69
2023/07/21 03:31:51;;;;;;;4.23;2.40;;;15.50;1.00;;;;;;5014493;28;20480;-69
2023/07/21 03:34:16;;;;;;;3.37;2.03;;;15.40;1.00;;;;;;5014849;28;20209;-69
2023/07/21 03:36:42;;;;;;;2.70;2.10;;;15.40;1.00;;;;;;5013367;28;20193;-69
2023/07/21 03:39:08;;;;;;;2.13;1.50;;;15.30;1.00;;;;;;5014752;28;20203;-69
2023/07/21 03:41:33;;;;;;;9.57;2.97;;;15.20;1.00;;;;;;5014371;28;20256;-69
2023/07/21 03:44:00;;;;;;;3.47;2.50;;;15.20;1.00;;;;;;5012618;28;20203;-70
2023/07/21 03:46:25;;;;;;;2.50;1.63;;;15.20;1.00;;;;;;5014316;28;20173;-69
2023/07/21 03:48:51;;;;;;;2.20;1.50;;;15.00;1.00;;;;;;5013061;28;21041;-68
2023/07/21 03:51:16;;;;;;;3.23;1.90;;;15.10;1.20;;;;;;5012782;28;20552;-69
2023/07/21 03:53:42;;;;;;;2.73;1.83;;;15.00;1.20;;;;;;5014353;28;20605;-68
2023/07/21 03:56:07;;;;;;;2.83;2.27;;;15.10;1.00;;;;;;5014504;28;20172;-68
2023/07/21 03:58:33;;;;;;;3.90;1.87;;;15.10;1.00;;;;;;5013004;28;20643;-69
2023/07/21 04:00:59;;;;;;;3.73;2.07;;;15.10;1.00;;;;;;5013097;28;20177;-69
2023/07/21 04:03:25;;;;;;;3.20;2.07;;;15.10;1.00;;;;;;5014131;28;20996;-67
2023/07/21 04:05:53;;;;;;;2.70;2.10;;;15.00;1.00;;;;;;5014334;28;20251;-68
2023/07/21 04:08:19;;;;;;;2.70;1.80;;;15.00;1.00;;;;;;5014153;28;20207;-68
2023/07/21 04:10:45;;;;;;;2.37;1.80;;;15.00;1.00;;;;;;5014252;28;20409;-68
2023/07/21 04:13:10;;;;;;;2.70;1.63;;;15.10;1.00;;;;;;5013877;28;20177;-68
2023/07/21 04:15:36;;;;;;;2.90;1.80;;;15.10;1.00;;;;;;5014091;28;20265;-68
2023/07/21 04:18:03;;;;;;;4.23;2.20;;;15.10;1.00;;;;;;5014073;28;20562;-68
2023/07/21 04:20:28;;;;;;;2.33;1.43;;;15.20;1.00;;;;;;5012741;28;20424;-69
2023/07/21 04:22:54;;;;;;;3.80;2.20;;;15.30;1.00;;;;;;5013821;28;20438;-69
2023/07/21 04:25:20;;;;;;;3.83;1.80;;;15.40;1.00;;;;;;5013844;28;20565;-69
2023/07/21 04:27:48;;;;;;;2.40;2.13;;;15.60;1.00;;;;;;5013714;28;20435;-69
2023/07/21 04:30:14;;;;;;;2.80;2.00;;;15.70;1.00;;;;;;5013774;28;20542;-68
2023/07/21 04:32:39;;;;;;;2.60;1.50;;;15.90;1.00;;;;;;5013519;28;20413;-69
2023/07/21 04:35:08;;;;;;;5.43;2.53;;;16.00;1.00;;;;;;5013594;28;20661;-69
2023/07/21 04:37:34;;;;;;;4.30;2.77;;;16.10;1.00;;;;;;5013557;28;20683;-69
2023/07/21 04:40:00;;;;;;;2.60;2.20;;;16.10;1.00;;;;;;5013512;28;20418;-69
2023/07/21 04:42:26;;;;;;;2.13;1.63;;;16.10;1.00;;;;;;5013242;28;20510;-68
2023/07/21 04:44:52;;;;;;;3.90;1.60;;;16.20;1.00;;;;;;5013330;28;20460;-70
2023/07/21 04:47:18;;;;;;;3.20;1.90;;;16.20;1.00;;;;;;5012027;28;20199;-70
2023/07/21 04:49:43;;;;;;;5.37;3.30;;;16.10;1.00;;;;;;5012696;28;20442;-71
2023/07/21 04:52:09;;;;;;;3.20;2.20;;;16.20;1.00;;;;;;5013272;28;20179;-70
2023/07/21 04:54:36;;;;;;;2.20;1.77;;;16.20;1.00;;;;;;5013256;28;20171;-71
2023/07/21 04:57:02;;;;;;;7.60;2.43;;;16.10;1.00;;;;;;5011823;28;20864;-71
2023/07/21 04:59:30;;;;;;;2.33;2.13;;;16.10;1.00;;;;;;5013080;28;20418;-70
2023/07/21 05:01:56;;;;;;;7.83;2.70;;;16.20;1.00;;;;;;5012878;28;20417;-70
2023/07/21 05:04:22;;;;;;;4.80;2.30;;;16.30;1.00;;;;;;5011689;28;20473;-69
2023/07/21 05:06:48;;;;;;;8.00;3.80;;;16.40;1.00;;;;;;5013132;28;20907;-70
2023/07/21 05:09:14;;;;;;;70.23;16.50;;;16.40;1.00;;;;;;5013186;28;20419;-69
2023/07/21 05:11:40;;;;;;;68.60;12.67;;;16.50;1.00;;;;;;5012925;28;20176;-70
2023/07/21 05:14:06;;;;;;;20.20;6.63;;;16.60;1.00;;;;;;5013049;28;20472;-70
2023/07/21 05:16:32;;;;;;;17.30;6.23;;;16.90;1.00;;;;;;5011755;28;20422;-71
2023/07/21 05:18:58;;;;;;;8.53;4.20;;;17.10;1.00;;;;;;5012839;28;20265;-71
2023/07/21 05:21:24;;;;;;;5.80;3.27;;;17.30;1.00;;;;;;5011509;28;20267;-69
2023/07/21 05:23:49;;;;;;;3.23;2.33;;;17.50;1.00;;;;;;5012629;28;20733;-70
2023/07/21 05:26:16;;;;;;;5.23;2.90;;;17.60;1.00;;;;;;5012795;28;20419;-69
2023/07/21 05:28:41;;;;;;;5.00;2.60;;;17.70;1.00;;;;;;5012427;28;20662;-69
2023/07/21 05:31:11;;;;;;;3.33;2.80;;;17.90;1.00;;;;;;5012646;28;20438;-69
2023/07/21 05:33:36;;;;;;;3.23;2.90;;;17.70;1.00;;;;;;5012283;28;20175;-69
2023/07/21 05:36:08;;;;;;;7.77;4.20;;;18.10;1.00;;;;;;5012596;28;20916;-70
2023/07/21 05:38:34;;;;;;;3.80;2.90;;;18.90;1.00;;;;;;5011219;28;20606;-69
2023/07/21 05:41:00;;;;;;;114.17;16.97;;;19.30;1.00;;;;;;5012587;28;20769;-69
2023/07/21 05:43:26;;;;;;;7.27;3.77;;;19.90;1.00;;;;;;5011016;28;20411;-69
2023/07/21 05:45:52;;;;;;;4.87;3.93;;;20.70;1.00;;;;;;5012445;28;20462;-69
2023/07/21 05:48:17;;;;;;;4.27;3.87;;;21.80;1.00;;;;;;5012308;28;20245;-70
2023/07/21 05:50:43;;;;;;;5.13;4.70;;;23.50;1.00;;;;;;5012433;28;20585;-70
2023/07/21 05:53:08;;;;;;;13.60;8.30;;;24.20;1.00;;;;;;5012241;28;20663;-69
2023/07/21 05:55:34;;;;;;;15.10;7.53;;;24.90;1.00;;;;;;5011777;28;20583;-70
2023/07/21 05:58:00;;;;;;;107.70;29.90;;;26.60;1.00;;;;;;5010882;28;20222;-69
2023/07/21 06:00:26;;;;;;;36.60;11.00;;;26.90;1.00;;;;;;5013119;28;20190;-69
2023/07/21 06:02:52;;;;;;;5.97;3.77;;;26.40;1.00;;;;;;5011046;28;20187;-69
2023/07/21 06:05:18;;;;;;;4.70;4.20;;;25.70;1.00;;;;;;5010427;28;20550;-70
2023/07/21 06:07:44;;;;;;;9.40;5.47;;;25.40;1.00;;;;;;5011459;28;20493;-70
2023/07/21 06:10:11;;;;;;;5.60;4.73;;;25.00;1.00;;;;;;5011344;28;20769;-69
2023/07/21 06:12:37;;;;;;;4.33;4.00;;;24.90;1.00;;;;;;5011292;28;20780;-70
2023/07/21 06:15:04;;;;;;;4.33;4.03;;;24.80;1.00;;;;;;5012086;28;20421;-70
2023/07/21 06:17:30;;;;;;;5.57;5.07;;;25.70;1.00;;;;;;5011215;28;20447;-70
2023/07/21 06:19:56;;;;;;;5.00;4.30;;;27.20;1.00;;;;;;5010734;28;20430;-70
2023/07/21 06:22:22;;;;;;;53.53;17.23;;;26.60;1.00;;;;;;5011783;28;20211;-70
2023/07/21 06:24:47;;;;;;;6.97;4.90;;;25.90;1.00;;;;;;5011622;28;20524;-70
2023/07/21 06:27:13;;;;;;;29.83;11.63;;;26.80;1.00;;;;;;5011431;28;20450;-70
2023/07/21 06:29:38;;;;;;;47.13;7.57;;;29.30;1.00;;;;;;5012465;28;20204;-70
2023/07/21 06:32:04;;;;;;;6.17;5.47;;;31.10;1.00;;;;;;5010080;28;20213;-70
2023/07/21 06:34:30;;;;;;;5.40;4.90;;;32.70;1.00;;;;;;5011754;28;20180;-70
2023/07/21 06:36:56;;;;;;;4.93;4.50;;;33.80;1.00;;;;;;5010360;28;20517;-71
2023/07/21 06:39:22;;;;;;;5.37;4.97;;;33.80;1.00;;;;;;5011392;28;20184;-70
2023/07/21 06:41:48;;;;;;;5.30;4.90;;;33.20;1.00;;;;;;5011506;28;20495;-70
2023/07/21 06:44:14;;;;;;;4.40;4.10;;;34.80;1.00;;;;;;5012346;28;20529;-70
2023/07/21 06:46:45;;;;;;;32.93;12.23;;;35.90;1.00;;;;;;5011214;28;20435;-70
2023/07/21 06:49:11;;;;;;;5.23;4.10;;;36.40;1.00;;;;;;5009794;28;20939;-71
2023/07/21 06:51:36;;;;;;;6.17;5.30;;;36.30;1.00;;;;;;5011372;28;20425;-71
2023/07/21 06:54:03;;;;;;;5.13;4.73;;;34.60;1.00;;;;;;5011219;28;20180;-70
2023/07/21 06:56:30;;;;;;;6.67;6.00;;;34.40;1.00;;;;;;5011464;28;20172;-70
2023/07/21 06:58:55;;;;;;;5.27;4.87;;;34.30;1.00;;;;;;5011264;28;20972;-70
2023/07/21 07:01:21;;;;;;;4.83;4.53;;;34.00;1.00;;;;;;5010203;28;20411;-70
2023/07/21 07:03:46;;;;;;;5.40;4.90;;;34.10;1.00;;;;;;5010657;28;20267;-71
2023/07/21 07:06:12;;;;;;;5.73;4.43;;;32.60;1.00;;;;;;5011563;28;20191;-69
2023/07/21 07:08:38;;;;;;;8.67;5.30;;;32.30;1.00;;;;;;5011228;28;20204;-70
2023/07/21 07:11:03;;;;;;;4.83;4.43;;;31.60;1.00;;;;;;5011279;28;20176;-70
2023/07/21 07:13:29;;;;;;;4.07;3.77;;;30.60;1.00;;;;;;5009563;28;20234;-70
2023/07/21 07:15:55;;;;;;;5.30;4.80;;;30.50;1.00;;;;;;5009840;28;20318;-70
2023/07/21 07:18:21;;;;;;;4.73;4.33;;;31.90;1.00;;;;;;5009974;28;20204;-70
2023/07/21 07:20:50;;;;;;;5.03;4.53;;;33.40;1.00;;;;;;5013806;28;21051;-70
2023/07/21 07:23:16;;;;;;;5.03;4.60;;;33.70;1.00;;;;;;5012444;28;20698;-70
2023/07/21 07:25:47;;;;;;;4.63;4.23;;;32.30;1.00;;;;;;5011285;28;20510;-70
2023/07/21 07:28:13;;;;;;;5.70;4.60;;;31.30;1.00;;;;;;5013610;28;20454;-69
2023/07/21 07:30:39;;;;;;;9.90;4.10;;;29.70;1.00;;;;;;5013242;28;20418;-70
2023/07/21 07:33:05;;;;;;;4.60;4.30;;;28.70;1.00;;;;;;5013666;28;20772;-70
2023/07/21 07:35:31;;;;;;;4.90;3.50;;;28.20;1.00;;;;;;5014679;28;20242;-70
2023/07/21 07:37:57;;;;;;;4.70;4.30;;;27.50;1.00;;;;;;5014370;28;20450;-70
2023/07/21 07:40:22;;;;;;;3.70;3.40;;;26.90;1.00;;;;;;5014520;28;20183;-70
2023/07/21 07:42:48;;;;;;;7.60;4.07;;;27.00;1.00;;;;;;5014336;28;20187;-70
2023/07/21 07:45:14;;;;;;;4.60;4.23;;;26.40;1.00;;;;;;5012404;28;20204;-70
2023/07/21 07:47:42;;;;;;;5.00;4.60;;;26.10;1.00;;;;;;5014100;28;20446;-70
2023/07/21 07:50:10;;;;;;;3.97;3.67;;;26.30;1.00;;;;;;5014080;28;20168;-69
2023/07/21 07:52:36;;;;;;;4.53;4.23;;;26.40;1.00;;;;;;5014119;28;20468;-70
2023/07/21 07:55:01;;;;;;;4.13;3.83;;;26.70;1.00;;;;;;5014144;28;20411;-71
2023/07/21 07:57:27;;;;;;;6.90;4.80;;;26.40;1.00;;;;;;5013339;28;20226;-71
2023/07/21 07:59:54;;;;;;;3.87;3.47;;;26.00;1.00;;;;;;5014226;28;20176;-71
2023/07/21 08:02:19;;;;;;;3.77;3.50;;;25.90;1.00;;;;;;5013894;28;20187;-71
2023/07/21 08:04:45;;;;;;;3.87;3.50;;;25.90;1.00;;;;;;5013026;28;20924;-71
2023/07/21 08:07:11;;;;;;;6.87;4.53;;;26.60;1.00;;;;;;5013551;28;20209;-71
2023/07/21 08:09:36;;;;;;;4.40;4.00;;;27.30;1.00;;;;;;5014029;28;20172;-70
2023/07/21 08:12:02;;;;;;;5.87;5.10;;;29.40;1.00;;;;;;5013545;28;20207;-71
2023/07/21 08:14:27;;;;;;;4.70;4.20;;;32.70;1.00;;;;;;5013894;28;20202;-71
2023/07/21 08:16:53;;;;;;;4.47;4.17;;;32.10;1.00;;;;;;5013694;28;20211;-72
2023/07/21 08:19:19;;;;;;;4.37;4.07;;;32.70;1.00;;;;;;5013703;28;20179;-71
2023/07/21 08:21:47;;;;;;;4.37;4.07;;;32.10;1.00;;;;;;5013349;28;20180;-72
2023/07/21 08:24:15;;;;;;;4.40;4.10;;;31.80;1.00;;;;;;5013796;28;20626;-71
2023/07/21 08:26:41;;;;;;;4.87;4.00;;;30.90;1.00;;;;;;5012395;28;20954;-71
2023/07/21 08:29:08;;;;;;;4.50;4.20;;;31.10;1.00;;;;;;5013890;28;20513;-69
2023/07/21 08:31:35;;;;;;;4.57;4.27;;;33.00;1.00;;;;;;5012947;28;20202;-70
2023/07/21 08:34:00;;;;;;;6.33;4.90;;;35.50;1.00;;;;;;5013416;28;20834;-70
2023/07/21 08:36:26;;;;;;;4.43;4.00;;;35.30;1.00;;;;;;5013603;28;20403;-70
2023/07/21 08:38:52;;;;;;;4.67;4.27;;;37.40;1.00;;;;;;5013311;28;20211;-70
2023/07/21 08:41:22;;;;;;;4.30;3.90;;;36.70;1.00;;;;;;5013643;28;20176;-71
2023/07/21 08:43:48;;;;;;;4.80;4.40;;;37.30;1.00;;;;;;5013313;28;20415;-71
2023/07/21 08:46:15;;;;;;;5.97;4.40;;;37.30;1.00;;;;;;5012599;28;20419;-71
2023/07/21 08:48:41;;;;;;;7.50;4.70;;;37.00;1.00;;;;;;5012457;28;20439;-70
2023/07/21 08:51:08;;;;;;;4.70;4.40;;;38.60;1.00;;;;;;5013494;28;20422;-70
2023/07/21 08:53:33;;;;;;;5.23;4.80;;;39.60;1.00;;;;;;5012487;28;20962;-71
2023/07/21 08:56:01;;;;;;;5.00;4.53;;;39.40;1.00;;;;;;5013045;28;20411;-70
2023/07/21 08:58:27;;;;;;;4.57;4.27;;;39.30;1.00;;;;;;5012274;28;20222;-70
2023/07/21 09:00:53;;;;;;;4.53;3.90;;;38.50;1.00;;;;;;5013707;28;20904;-70
2023/07/21 09:03:30;;;;;;;4.47;4.17;;;37.90;1.00;;;;;;5013193;28;20418;-71
2023/07/21 09:05:59;;;;;;;5.00;4.70;;;37.90;1.00;;;;;;5013406;28;20911;-71
2023/07/21 09:08:27;;;;;;;4.87;4.37;;;37.80;1.00;;;;;;5012811;28;20446;-71
2023/07/21 09:10:58;;;;;;;4.20;3.90;;;37.70;1.00;;;;;;5011958;28;20779;-71
2023/07/21 09:13:23;;;;;;;4.57;4.27;;;36.70;1.00;;;;;;5012554;28;20962;-70
2023/07/21 09:15:54;;;;;;;4.93;4.10;;;36.80;1.00;;;;;;5012751;28;20423;-71
2023/07/21 09:18:30;;;;;;;4.70;4.30;;;36.20;1.00;;;;;;5012919;28;20211;-70
2023/07/21 09:20:57;;;;;;;4.40;4.10;;;34.70;1.00;;;;;;5012680;28;20935;-71
2023/07/21 09:23:23;;;;;;;4.33;4.03;;;32.70;1.00;;;;;;5010919;28;20488;-71
2023/07/21 09:25:57;;;;;;;5.33;4.97;;;31.40;1.00;;;;;;5012525;28;20553;-70
2023/07/21 09:28:44;;;;;;;4.73;4.43;;;30.00;1.00;;;;;;5012682;28;20509;-71
2023/07/21 09:31:11;;;;;;;5.00;4.50;;;28.70;1.00;;;;;;5012649;28;20414;-72
2023/07/21 09:33:42;;;;;;;4.87;4.47;;;28.10;1.00;;;;;;5012430;28;20482;-71
2023/07/21 09:36:14;;;;;;;4.70;4.30;;;27.60;1.00;;;;;;5012552;28;20415;-71
2023/07/21 09:38:40;;;;;;;4.57;4.27;;;27.20;1.00;;;;;;5012120;28;21026;-71
2023/07/21 09:41:09;;;;;;;4.70;4.40;;;27.10;1.00;;;;;;5011324;28;20426;-70
2023/07/21 09:43:36;;;;;;;4.40;4.10;;;27.20;1.00;;;;;;5011833;28;20415;-69
2023/07/21 09:46:03;;;;;;;4.97;4.57;;;26.90;1.00;;;;;;5013954;28;20471;-70
2023/07/21 09:48:32;;;;;;;4.13;3.83;;;26.90;1.00;;;;;;5012680;28;20661;-70
2023/07/21 09:51:00;;;;;;;4.43;4.13;;;27.10;1.00;;;;;;5012134;28;20458;-71
2023/07/21 09:53:29;;;;;;;3.83;3.63;;;27.50;1.00;;;;;;5010603;28;20446;-70
2023/07/21 09:55:58;;;;;;;4.10;3.80;;;27.40;1.00;;;;;;5012044;28;20419;-71
2023/07/21 09:58:26;;;;;;;4.33;4.03;;;27.30;1.00;;;;;;5011823;28;20485;-71
2023/07/21 10:00:53;;;;;;;4.50;4.10;;;27.20;1.00;;;;;;5012017;28;20477;-71
2023/07/21 10:03:22;;;;;;;4.93;4.63;;;27.40;1.00;;;;;;5012744;28;20426;-71
2023/07/21 10:05:48;;;;;;;4.60;4.30;;;27.20;1.00;;;;;;5012211;28;20454;-71
2023/07/21 10:08:15;;;;;;;4.20;3.90;;;27.30;1.00;;;;;;5011844;28;20441;-71
2023/07/21 10:10:41;;;;;;;4.60;4.30;;;27.70;1.00;;;;;;5011033;28;20822;-70
2023/07/21 10:13:07;;;;;;;4.50;4.20;;;27.90;1.00;;;;;;5011733;28;20411;-70
2023/07/21 10:15:35;;;;;;;4.47;4.07;;;27.70;1.00;;;;;;5011893;28;20422;-71
2023/07/21 10:18:07;;;;;;;3.97;3.70;;;27.90;1.00;;;;;;5011047;28;20446;-69
2023/07/21 10:20:48;;;;;;;4.53;4.20;;;27.90;1.00;;;;;;5012299;28;20431;-70
2023/07/21 10:23:15;;;;;;;4.03;3.73;;;27.80;1.00;;;;;;5011569;28;20411;-70
2023/07/21 10:25:52;;;;;;;4.30;4.00;;;27.70;1.00;;;;;;5011953;28;20494;-70
2023/07/21 10:28:30;;;;;;;4.33;4.03;;;27.40;1.00;;;;;;5011611;28;20435;-70
2023/07/21 10:31:21;;;;;;;4.07;3.77;;;27.40;1.00;;;;;;5011680;28;20411;-70
2023/07/21 10:34:03;;;;;;;4.50;4.20;;;27.60;1.00;;;;;;5009608;28;20419;-71
2023/07/21 10:36:52;;;;;;;4.20;3.90;;;27.60;1.00;;;;;;5010554;28;20419;-70
2023/07/21 10:39:41;;;;;;;4.60;4.30;;;27.70;1.00;;;;;;5011588;28;20478;-70
2023/07/21 10:42:08;;;;;;;4.73;4.33;;;28.50;1.00;;;;;;5011289;28;20553;-70
2023/07/21 10:44:54;;;;;;;4.57;4.27;;;28.60;1.00;;;;;;5010179;28;20458;-69
2023/07/21 10:47:21;;;;;;;4.47;4.07;;;28.70;1.00;;;;;;5011089;28;20797;-71
2023/07/21 10:49:48;;;;;;;4.33;4.03;;;28.90;1.00;;;;;;5011521;28;20473;-70
2023/07/21 10:52:14;;;;;;;4.63;4.23;;;29.30;1.00;;;;;;5011191;28;20996;-70
2023/07/21 10:54:40;;;;;;;4.70;4.30;;;29.40;1.00;;;;;;5013027;28;20427;-71
2023/07/21 10:57:07;;;;;;;5.13;4.83;;;29.20;1.00;;;;;;5013948;28;21003;-71
2023/07/21 10:59:34;;;;;;;4.97;4.67;;;29.50;1.00;;;;;;5014996;28;20179;-71
2023/07/21 11:02:02;;;;;;;4.67;4.37;;;29.70;1.00;;;;;;5014701;28;20434;-71
2023/07/21 11:04:29;;;;;;;4.30;4.00;;;29.60;1.00;;;;;;5013679;28;20522;-71
2023/07/21 11:06:57;;;;;;;4.80;4.50;;;29.70;1.00;;;;;;5015009;28;20489;-71
2023/07/21 11:09:23;;;;;;;5.20;4.83;;;29.90;1.00;;;;;;5014825;28;20485;-71
2023/07/21 11:11:51;;;;;;;5.17;4.80;;;29.30;1.00;;;;;;5014669;28;20406;-71
2023/07/21 11:14:26;;;;;;;4.27;3.87;;;29.40;1.00;;;;;;5013498;28;20472;-71
2023/07/21 11:16:55;;;;;;;4.33;4.03;;;29.50;1.00;;;;;;5014755;28;21097;-71
2023/07/21 11:19:23;;;;;;;5.07;4.70;;;29.00;1.00;;;;;;5014653;28;20415;-71
2023/07/21 11:21:49;;;;;;;5.00;4.50;;;28.40;1.00;;;;;;5014732;28;20446;-71
2023/07/21 11:24:19;;;;;;;4.70;4.30;;;28.50;1.00;;;;;;5014649;28;20461;-71
2023/07/21 11:26:49;;;;;;;4.53;4.20;;;28.00;1.00;;;;;;5014391;28;20577;-70
2023/07/21 11:29:15;;;;;;;4.63;4.33;;;27.60;1.00;;;;;;5013491;28;20427;-70
2023/07/21 11:31:41;;;;;;;4.50;4.10;;;27.30;1.00;;;;;;5014097;28;20776;-70
2023/07/21 11:34:21;;;;;;;4.73;4.43;;;27.00;1.00;;;;;;5014352;28;20498;-70
2023/07/21 11:36:50;;;;;;;4.20;3.90;;;26.90;1.00;;;;;;5013025;28;20509;-70
2023/07/21 11:39:20;;;;;;;5.73;4.57;;;26.60;1.00;;;;;;5013993;28;20438;-70
2023/07/21 11:41:55;;;;;;;4.50;4.20;;;26.40;1.00;;;;;;5013580;28;20469;-70
2023/07/21 11:44:28;;;;;;;4.50;4.20;;;26.20;1.00;;;;;;5013075;28;20469;-68
2023/07/21 11:47:06;;;;;;;5.40;5.00;;;26.10;1.00;;;;;;5013897;28;20433;-68
2023/07/21 11:49:38;;;;;;;6.90;5.40;;;25.70;1.00;;;;;;5014080;28;20436;-67
2023/07/21 11:52:05;;;;;;;4.30;4.00;;;25.60;1.00;;;;;;5013705;28;20888;-68
2023/07/21 11:54:40;;;;;;;8.37;4.50;;;25.40;1.00;;;;;;5014262;28;20411;-68
2023/07/21 11:57:06;;;;;;;4.60;4.20;;;25.20;1.00;;;;;;5013941;28;20538;-68
2023/07/21 11:59:31;;;;;;;4.97;4.57;;;25.00;1.00;;;;;;5012920;28;20423;-68
2023/07/21 12:01:57;;;;;;;12.70;5.13;;;25.10;1.00;;;;;;5013822;28;20752;-68
2023/07/21 12:04:23;;;;;;;8.27;5.17;;;25.00;1.00;;;;;;5013920;28;20224;-68
2023/07/21 12:06:50;;;;;;;4.77;4.37;;;25.00;1.00;;;;;;5011958;28;20206;-68
2023/07/21 12:09:16;;;;;;;5.00;4.50;;;25.10;1.00;;;;;;5013976;28;20411;-68
2023/07/21 12:11:43;;;;;;;6.23;5.27;;;25.00;1.00;;;;;;5013949;28;20849;-68
2023/07/21 12:14:11;;;;;;;5.10;4.70;;;25.00;1.00;;;;;;5014260;28;20418;-68
2023/07/21 12:16:37;;;;;;;5.60;5.03;;;25.10;1.00;;;;;;5014019;28;20426;-68
2023/07/21 12:19:03;;;;;;;5.70;5.20;;;25.40;1.00;;;;;;5013815;28;20435;-68
2023/07/21 12:21:30;;;;;;;4.50;4.10;;;25.90;1.00;;;;;;5013429;28;20473;-68
2023/07/21 12:23:56;;;;;;;5.33;4.33;;;26.20;1.00;;;;;;5013397;28;20407;-68
2023/07/21 12:26:22;;;;;;;5.03;4.63;;;26.60;1.00;;;;;;5013468;28;20630;-69
2023/07/21 12:28:49;;;;;;;5.10;4.70;;;26.80;1.00;;;;;;5013376;28;20951;-69
2023/07/21 12:31:15;;;;;;;12.67;6.53;;;27.30;1.00;;;;;;5012169;28;20817;-69
2023/07/21 12:33:41;;;;;;;4.40;4.00;;;27.80;1.00;;;;;;5013086;28;20493;-69
2023/07/21 12:36:07;;;;;;;9.90;5.60;;;28.00;1.00;;;;;;5013356;28;20501;-69
2023/07/21 12:38:33;;;;;;;4.70;4.20;;;28.00;1.00;;;;;;5013631;28;20484;-69
2023/07/21 12:40:58;;;;;;;4.87;4.50;;;28.30;1.00;;;;;;5013304;28;20427;-69
2023/07/21 12:43:24;;;;;;;4.67;4.37;;;28.60;1.00;;;;;;5011944;28;20187;-69
2023/07/21 12:45:49;;;;;;;5.17;4.77;;;28.30;1.00;;;;;;5013184;28;20578;-69
2023/07/21 12:48:15;;;;;;;4.57;4.23;;;28.10;1.00;;;;;;5012972;28;20207;-69
2023/07/21 12:50:41;;;;;;;4.57;4.17;;;28.00;1.00;;;;;;5013134;28;20187;-70
2023/07/21 12:53:07;;;;;;;4.93;4.47;;;28.00;1.00;;;;;;5012787;28;20250;-69
2023/07/21 12:55:33;;;;;;;4.50;4.20;;;28.10;1.00;;;;;;5012935;28;20447;-69
2023/07/21 12:57:59;;;;;;;4.30;3.90;;;28.20;1.00;;;;;;5012967;28;20885;-69